SBDN/PPB METAR and TAF weather

Enter ICAO airport designator
Station Type Date Time Source
SBDN METAR 2021/09/16 09:00 UTC NOAA

SBDN 160900Z 12009KT CAVOK 18/17 Q1019


Station Type Date Time Source
SBDN Decoded METAR 2021/09/16 09:00 UTC NOAA

Presidente Prudente, Brazil (SBDN) 22-07S 051-23W
Sep 16, 2021 - 05:00 AM EDT / 2021.09.16 0900 UTC
Wind: from the ESE (120 degrees) at 10 MPH (9 KT):0
Visibility: greater than 7 mile(s):0
Temperature: 64 F (18 C)
Dew Point: 62 F (17 C)
Relative Humidity: 93%
Pressure (altimeter): 30.09 in. Hg (1019 hPa)
ob: SBDN 160900Z 12009KT CAVOK 18/17 Q1019
cycle: 9

Station Type Date Time Source
SBDN TAF 2021/09/16 06:27 UTC NOAA

TAF SBDN 160345Z 1606/1618 11011KT 9999 SCT015 TN19/1609Z TX29/1617Z
BECMG 1609/1611 CAVOK
TEMPO 1611/1615 12013G25KT
BECMG 1615/1617 14006KT 9999 SCT040
RMK PGE

Example: see airport list